岩国飛行場の過去48時間の天気

岩国飛行場 (Iwakuni)

現在時刻: 7/23 03:38 JST (7/22 18:38 UTC) 以下の時間は現地時間です。

過去48時間のMETAR気象情報
時間 風向 風速(m/s) 視程 気温(℃) 湿度(%) 気圧(hPa) 天気現象
23 02:55 西 2 10km以上 28.3 77 1009.7
23 01:55 西 2 10km以上 28.3 77 1009.8
23 00:55 西 3 10km以上 28.9 74 1009.8
22 23:55 西 3 10km以上 28.9 74 1010.2
22 22:55 南西 3 10km以上 29.4 72 1010.4
22 21:55 南南西 3 10km以上 30 70 1010.8
22 20:55 南西 4 10km以上 30 72 1011.1
22 19:55 南西 4 10km以上 30.6 68 1010.9
22 18:55 6 10km以上 30.6 72 1010.3
22 17:55 南南西 4 10km以上 32.2 62 1009.8
22 16:55 5 10km以上 33.3 60 1009.8
22 15:55 6 10km以上 34.4 53 1009.6
22 14:55 5 10km以上 34.4 53 1009.8
22 13:55 南南東 5 10km以上 34.4 53 1010.2
22 12:55 南東 3 10km以上 33.9 54 1010.5
22 11:55 3 10km以上 32.8 52 1011.1
22 10:55 東南東 3 10km以上 32.2 50 1011.4
22 09:55 東南東 2 10km以上 32.2 54 1011.5
22 08:55 南南東 2 10km以上 30.6 68 1011.6
22 07:55 2 10km以上 30 67 1011.7
22 06:55 静穏 0 10km以上 30 65 1011.3
22 05:55 西北西 3 10km以上 27.8 74 1011
22 04:55 西北西 3 10km以上 27.2 77 1010.9
22 03:55 北西 2 10km以上 27.8 74 1010.9
22 02:55 西北西 2 10km以上 27.8 74 1010.7
22 01:55 西北西 3 10km以上 28.3 72 1010.5
22 00:55 北西 2 10km以上 28.9 70 1010.5
21 23:55 北西 2 10km以上 29.4 68 1010.7
21 22:55 静穏 0 10km以上 30.6 61 1010.9
21 21:55 西 2 10km以上 30 67 1011
21 20:55 西南西 2 10km以上 30.6 65 1011
21 19:55 南南西 4 10km以上 31.1 66 1010.8
21 18:55 4 10km以上 32.2 62 1010.4
21 17:55 南南東 6 10km以上 32.2 62 1009.9
21 16:55 南南東 6 10km以上 32.8 61 1009.9
21 15:55 南南東 4 10km以上 32.8 57 1010.1
21 14:55 南南東 4 10km以上 32.8 57 1010.2
21 13:55 3 10km以上 33.9 49 1010.4
21 12:55 東北東 3 10km以上 33.9 47 1010.8
21 11:55 3 10km以上 32.8 56 1011.3
21 10:55 東北東 3 10km以上 32.2 58 1011.6
21 09:55 2 10km以上 31.1 63 1011.7
21 08:55 東南東 2 10km以上 30 70 1011.6
21 07:55 2 10km以上 30 67 1011.5
21 06:55 静穏 0 10km以上 28.9 70 1011.3
21 05:55 北西 2 10km以上 27.2 77 1011.1
21 04:55 北西 3 10km以上 27.2 77 1010.8
21 03:55 北西 2 10km以上 27.8 74 1010.3
RJOI 221755Z 28004KT 9999 FEW030 FEW045 SCT150 28/24 A2982 RMK SLP097 T02830239 10300 20283 56007
RJOI 221655Z 28004KT 9999 FEW030 FEW150 28/24 A2982 RMK SLP098 T02830239
RJOI 221555Z 28005KT 9999 FEW030 FEW150 29/24 A2982 RMK SLP098 T02890239
RJOI 221455Z 28006KT 9999 FEW030 FEW050 SCT150 29/24 A2983 RMK SLP102 T02890239 403560272 56007
RJOI 221355Z 23005KT 9999 FEW025 FEW050 SCT220 29/24 A2984 RMK SLP104 T02940239
RJOI 221255Z 21006KT 9999 FEW025 SCT050 SCT220 30/24 A2985 RMK SLP108 T03000239
RJOI 221155Z 23008KT 9999 FEW025 FEW050 SCT220 30/24 A2986 RMK SLP111 T03000244 10350 20300 51010
RJOI 221055Z 22008KT 9999 FEW025 FEW040 BKN220 31/24 A2985 RMK SLP109 T03060239
RJOI 220955Z 19012KT 9999 FEW025 SCT100 BKN220 31/25 A2984 RMK SLP103 T03060250
RJOI 220855Z 20007KT 9999 FEW025 SCT100 BKN220 32/24 A2982 RMK TCU DSNT SE SLP098 T03220239 54000
RJOI 220755Z 18010KT 9999 FEW030 SCT100 BKN220 33/24 A2982 RMK TCU DSNT E-SE SLP098 T03330244
RJOI 220655Z 19011KT 9999 FEW030 SCT120 BKN240 34/23 A2982 RMK TCU DSNT E SLP096 T03440233
RJOI 220555Z 18010KT 9999 FEW030 SCT120 BKN240 34/23 A2982 RMK SLP098 T03440233 10356 20306 57010
RJOI 220455Z 15009KT 9999 FEW030 SCT120 BKN240 34/23 A2983 RMK SLP102 T03440233
RJOI 220355Z 13006KT 9999 FEW030 FEW240 34/23 A2984 RMK SLP105 T03390233
RJOI 220255Z VRB05KT 9999 FEW030 BKN240 33/22 A2986 RMK SLP111 CONTRAIL OVHD T03280217 58007
RJOI 220155Z 11005KT 9999 FEW030 SCT130 BKN240 32/21 A2987 RMK SLP114 MDT CU E T03220206
RJOI 220055Z 11003KT 9999 FEW030 SCT130 BKN240 32/22 A2987 RMK SLP115 T03220217
RJOI 212355Z 16004KT 9999 FEW030 SCT130 BKN240 31/24 A2988 RMK SLP116 T03060239 10306 20272 51007
RJOI 212255Z 08004KT 9999 FEW030 FEW050 BKN240 30/23 A2988 RMK SLP117 T03000233
RJOI 212155Z 00000KT 9999 FEW035 FEW050 BKN240 30/23 A2987 RMK SLP113 T03000228
RJOI 212055Z 29005KT 9999 FEW035 FEW100 BKN240 28/23 A2986 RMK SLP110 T02780228 51003
RJOI 211955Z 30006KT 9999 FEW040 FEW100 BKN240 27/23 A2985 RMK SLP109 T02720228
RJOI 211855Z 31003KT 9999 FEW100 SCT230 28/23 A2985 RMK SLP109 T02780228
RJOI 211755Z 30003KT 9999 SCT230 28/23 A2985 RMK FRQ LTG DSNT S SLP107 T02780228 10306 20278 54000
RJOI 211655Z 30005KT 9999 FEW230 28/23 A2984 RMK SLP105 T02830228
RJOI 211555Z 31003KT 9999 FEW230 29/23 A2984 RMK SLP105 T02890228
RJOI 211455Z 31004KT 9999 FEW100 SCT230 29/23 A2985 RMK SLP107 T02940228 403440267 58003
RJOI 211355Z 00000KT 9999 FEW100 FEW230 31/22 A2986 RMK SLP109 T03060222
RJOI 211255Z 27003KT 9999 FEW100 SCT230 30/23 A2986 RMK SLP110 T03000233
RJOI 211155Z 25003KT 9999 FEW030 FEW100 SCT230 31/23 A2986 RMK SLP110 T03060233 10339 20306 51010
RJOI 211055Z 20007KT 9999 FEW030 FEW100 BKN230 31/24 A2985 RMK SLP108 T03110239
RJOI 210955Z 18008KT 9999 FEW045 SCT100 SCT230 32/24 A2984 RMK SLP104 T03220239
RJOI 210855Z 15011KT 9999 SCT030 SCT100 BKN230 32/24 A2983 RMK SLP099 T03220239 56003
RJOI 210755Z 16011KT 9999 SCT030 SCT100 BKN230 33/24 A2982 RMK TCU DSNT NW TCU DSNT NE SLP099 T03280244
RJOI 210655Z 16008KT 9999 SCT030 SCT100 BKN230 33/23 A2983 RMK SLP101 T03280233
RJOI 210555Z 16008KT 9999 SCT030 BKN230 33/23 A2983 RMK SLP102 T03280233 10344 20294 56010
RJOI 210455Z COR 17006KT 9999 SCT035 BKN230 34/22 A2984 RMK TCU 3E MOVG N SLP104 T03390217
RJOI 210355Z 07006KT 9999 SCT035 BKN230 34/21 A2985 RMK SLP108 T03390211
RJOI 210255Z 08005KT 9999 SCT035 BKN230 33/23 A2987 RMK TCU DSNT NE TCU DSN S SLP113 T03280228 58003
RJOI 210155Z 06005KT 9999 SCT035 SCT230 32/23 A2987 RMK SLP116 T03220228
RJOI 210055Z 10004KT 9999 FEW035 SCT100 SCT230 31/23 A2988 RMK SLP117 T03110233
RJOI 202355Z 11004KT 9999 SCT035 SCT100 BKN230 30/24 A2987 RMK SLP116 T03000239 10311 20267 53007
RJOI 202255Z 10004KT 9999 FEW040 SCT100 SCT350 30/23 A2987 RMK SLP115 T03000233
RJOI 202155Z 00000KT 9999 FEW040 SCT100 SCT350 29/23 A2987 RMK TCU DSNT S SLP113 T02890228
RJOI 202055Z 31004KT 9999 FEW045 SCT080 BKN350 27/23 A2986 RMK SLP111 T02720228 53007
RJOI 201955Z 31005KT 9999 FEW045 FEW120 SCT350 27/23 A2985 RMK SLP108 T02720228
RJOI 201855Z 32003KT 9999 FEW030 28/23 A2984 RMK SLP103 T02780228